Time;durP1;ratioP1;P1;durP2;ratioP2;P2;SDS_P1;SDS_P2;PMS_P1;PMS_P2;Temp;Humidity;BMP_temperature;BMP_pressure;BME280_temperature;BME280_humidity;BME280_pressure;Samples;Min_cycle;Max_cycle;Signal;HPM_P1;HPM_P2
2023/06/18 00:00:33;;;;;;;3.33;2.50;;;;;;;;;;21011544;28;20037;-69
2023/06/18 00:10:34;;;;;;;3.00;2.47;;;;;;;;;;21011997;28;20482;-69
2023/06/18 00:20:35;;;;;;;3.22;2.42;;;;;;;;;;21011127;28;20131;-68
2023/06/18 00:30:37;;;;;;;4.03;2.75;;;;;;;;;;21009799;28;20413;-68
2023/06/18 00:40:38;;;;;;;4.00;2.63;;;;;;;;;;21008336;28;20059;-68
2023/06/18 00:50:40;;;;;;;3.47;2.55;;;;;;;;;;21007015;28;20048;-68
2023/06/18 01:00:43;;;;;;;4.10;2.70;;;;;;;;;;21007846;28;20044;-68
2023/06/18 01:10:44;;;;;;;3.88;2.60;;;;;;;;;;21006734;28;20050;-68
2023/06/18 01:20:46;;;;;;;3.15;2.25;;;;;;;;;;21006231;28;20192;-68
2023/06/18 01:30:48;;;;;;;4.65;2.40;;;;;;;;;;21005380;28;20091;-68
2023/06/18 01:41:01;;;;;;;3.00;2.25;;;;;;;;;;21004840;28;20052;-68
2023/06/18 01:51:03;;;;;;;3.55;2.67;;;;;;;;;;21002200;28;20112;-68
2023/06/18 02:01:04;;;;;;;3.35;2.30;;;;;;;;;;21001632;28;20041;-68
2023/06/18 02:11:05;;;;;;;4.15;3.00;;;;;;;;;;21002054;28;20040;-68
2023/06/18 02:21:07;;;;;;;4.47;2.67;;;;;;;;;;21000328;28;20037;-68
2023/06/18 02:31:09;;;;;;;4.60;2.53;;;;;;;;;;20999795;28;20359;-68
2023/06/18 02:41:10;;;;;;;5.78;2.83;;;;;;;;;;20999549;28;20048;-68
2023/06/18 02:51:11;;;;;;;4.22;2.80;;;;;;;;;;20999260;28;20398;-68
2023/06/18 03:01:12;;;;;;;4.45;2.88;;;;;;;;;;20998361;28;20068;-68
2023/06/18 03:11:14;;;;;;;4.75;2.67;;;;;;;;;;20998096;28;20076;-68
2023/06/18 03:21:15;;;;;;;3.97;2.63;;;;;;;;;;20997877;28;20052;-68
2023/06/18 03:31:16;;;;;;;6.25;3.15;;;;;;;;;;20996111;28;20063;-69
2023/06/18 03:41:18;;;;;;;5.60;3.30;;;;;;;;;;20995350;28;20147;-68
2023/06/18 03:51:19;;;;;;;6.18;3.33;;;;;;;;;;20996351;28;20047;-68
2023/06/18 04:01:20;;;;;;;3.97;2.95;;;;;;;;;;20996023;28;20089;-69
2023/06/18 04:11:21;;;;;;;6.32;3.30;;;;;;;;;;20995265;28;20048;-68
2023/06/18 04:21:22;;;;;;;5.70;3.50;;;;;;;;;;20994809;28;20045;-70
2023/06/18 04:31:24;;;;;;;4.82;3.22;;;;;;;;;;20994695;28;20056;-68
2023/06/18 04:41:25;;;;;;;5.43;3.28;;;;;;;;;;21000954;28;20051;-68
2023/06/18 04:51:26;;;;;;;6.88;3.30;;;;;;;;;;21008693;28;20052;-68
2023/06/18 05:01:28;;;;;;;10.98;3.70;;;;;;;;;;21007064;28;20056;-68
2023/06/18 05:11:29;;;;;;;4.57;3.63;;;;;;;;;;21006980;28;20041;-67
2023/06/18 05:21:30;;;;;;;6.95;3.90;;;;;;;;;;21004930;28;20052;-68
2023/06/18 05:31:31;;;;;;;5.88;3.55;;;;;;;;;;21005189;28;20535;-69
2023/06/18 05:41:32;;;;;;;6.13;3.30;;;;;;;;;;21003470;28;20105;-68
2023/06/18 05:51:33;;;;;;;7.20;3.22;;;;;;;;;;21004039;28;20537;-69
2023/06/18 06:01:34;;;;;;;6.68;3.53;;;;;;;;;;21001684;28;20042;-68
2023/06/18 06:11:36;;;;;;;4.05;3.20;;;;;;;;;;21002892;28;20041;-68
2023/06/18 06:21:38;;;;;;;5.70;3.80;;;;;;;;;;21002302;28;20059;-69
2023/06/18 06:31:39;;;;;;;3.50;2.50;;;;;;;;;;21000111;28;20127;-68
2023/06/18 06:41:40;;;;;;;4.13;3.40;;;;;;;;;;20998815;28;20048;-69
2023/06/18 06:51:41;;;;;;;6.47;3.20;;;;;;;;;;21000112;28;20048;-68
2023/06/18 07:01:43;;;;;;;3.95;3.10;;;;;;;;;;20997142;28;20543;-68
2023/06/18 07:11:44;;;;;;;4.30;3.03;;;;;;;;;;20998235;28;20051;-69
2023/06/18 07:21:45;;;;;;;4.32;3.20;;;;;;;;;;20996419;28;20040;-69
2023/06/18 07:31:47;;;;;;;4.65;3.55;;;;;;;;;;20996385;28;20064;-68
2023/06/18 07:41:49;;;;;;;6.97;3.42;;;;;;;;;;20996684;28;20050;-69
2023/06/18 07:51:50;;;;;;;5.47;3.15;;;;;;;;;;20995997;28;20635;-69
2023/06/18 08:01:52;;;;;;;7.45;3.63;;;;;;;;;;20995234;28;20068;-71
2023/06/18 08:11:55;;;;;;;4.38;3.10;;;;;;;;;;20995680;28;20604;-70
2023/06/18 08:21:56;;;;;;;4.35;3.20;;;;;;;;;;21009725;28;20045;-70
2023/06/18 08:32:00;;;;;;;6.10;2.90;;;;;;;;;;21009682;28;20059;-69
2023/06/18 08:42:01;;;;;;;8.73;3.38;;;;;;;;;;21008075;28;20054;-69
2023/06/18 08:52:03;;;;;;;10.55;4.03;;;;;;;;;;21008391;28;20049;-69
2023/06/18 09:02:05;;;;;;;5.88;3.53;;;;;;;;;;21006472;28;20036;-69
2023/06/18 09:12:06;;;;;;;4.72;3.28;;;;;;;;;;20990706;28;20044;-71
2023/06/18 09:22:18;;;;;;;29.08;4.75;;;;;;;;;;20997637;28;20037;-69
2023/06/18 09:32:19;;;;;;;9.48;5.28;;;;;;;;;;20999364;28;20051;-70
2023/06/18 09:42:28;;;;;;;6.45;4.00;;;;;;;;;;20991739;28;20044;-69
2023/06/18 09:52:29;;;;;;;7.05;3.97;;;;;;;;;;20987597;28;20056;-70
2023/06/18 10:02:37;;;;;;;6.32;3.55;;;;;;;;;;20988286;28;20381;-70
2023/06/18 10:12:39;;;;;;;7.90;3.72;;;;;;;;;;20992948;28;20553;-69
2023/06/18 10:22:40;;;;;;;7.38;3.72;;;;;;;;;;20990797;28;20048;-70
2023/06/18 10:32:43;;;;;;;6.28;3.70;;;;;;;;;;20991774;28;20075;-69
2023/06/18 10:42:48;;;;;;;4.78;3.33;;;;;;;;;;20998205;28;20090;-69
2023/06/18 10:52:50;;;;;;;5.70;3.47;;;;;;;;;;20999555;28;20040;-69
2023/06/18 11:02:58;;;;;;;4.40;3.75;;;;;;;;;;20998497;28;20185;-69
2023/06/18 11:12:59;;;;;;;5.43;3.53;;;;;;;;;;20998131;28;20037;-69
2023/06/18 11:23:01;;;;;;;4.32;3.53;;;;;;;;;;20997085;28;20054;-70
2023/06/18 11:33:02;;;;;;;5.88;3.70;;;;;;;;;;20996202;28;20122;-69
2023/06/18 11:43:03;;;;;;;6.68;4.45;;;;;;;;;;20996060;28;20045;-69
2023/06/18 11:53:07;;;;;;;7.63;3.67;;;;;;;;;;21007897;28;20044;-70
2023/06/18 12:03:08;;;;;;;7.35;3.47;;;;;;;;;;21012430;28;20052;-70
2023/06/18 12:13:19;;;;;;;4.85;3.40;;;;;;;;;;21009278;28;20127;-69
2023/06/18 12:23:22;;;;;;;4.38;3.08;;;;;;;;;;21010515;28;20091;-70
2023/06/18 12:33:23;;;;;;;9.55;6.90;;;;;;;;;;21008213;28;20053;-70
2023/06/18 12:43:24;;;;;;;6.35;3.47;;;;;;;;;;21008375;28;20045;-69
2023/06/18 12:53:27;;;;;;;7.47;4.15;;;;;;;;;;21007512;28;20509;-69
2023/06/18 13:03:30;;;;;;;5.25;3.60;;;;;;;;;;21006767;28;20048;-69
2023/06/18 13:13:31;;;;;;;4.85;3.10;;;;;;;;;;21007230;28;20060;-69
2023/06/18 13:23:32;;;;;;;4.03;3.03;;;;;;;;;;21005607;28;20044;-69
2023/06/18 13:33:33;;;;;;;4.95;3.38;;;;;;;;;;21005060;28;20071;-69
2023/06/18 13:43:34;;;;;;;2.60;2.40;;;;;;;;;;21005312;28;20559;-69
2023/06/18 13:53:35;;;;;;;5.60;2.85;;;;;;;;;;21004306;28;20405;-69
2023/06/18 14:03:36;;;;;;;4.40;3.03;;;;;;;;;;21003534;28;20528;-70
2023/06/18 14:13:38;;;;;;;3.03;2.65;;;;;;;;;;21000110;28;20041;-71
2023/06/18 14:23:39;;;;;;;3.75;2.85;;;;;;;;;;21000380;28;20044;-71
2023/06/18 14:33:40;;;;;;;4.18;2.63;;;;;;;;;;21000246;28;20080;-69
2023/06/18 14:43:42;;;;;;;2.65;2.40;;;;;;;;;;20999859;28;20501;-69
2023/06/18 14:53:48;;;;;;;3.15;2.83;;;;;;;;;;20997933;28;20055;-70
2023/06/18 15:03:49;;;;;;;3.75;2.30;;;;;;;;;;20998762;28;20045;-70
2023/06/18 15:13:50;;;;;;;5.15;2.63;;;;;;;;;;20996774;28;20044;-69
2023/06/18 15:23:51;;;;;;;1.95;1.70;;;;;;;;;;20997952;28;20083;-70
2023/06/18 15:33:52;;;;;;;3.33;2.10;;;;;;;;;;20996057;28;20065;-69
2023/06/18 15:43:55;;;;;;;3.58;2.70;;;;;;;;;;20995403;28;20097;-69
2023/06/18 15:53:56;;;;;;;3.58;2.47;;;;;;;;;;20996428;28;20395;-70
2023/06/18 16:03:58;;;;;;;2.85;1.77;;;;;;;;;;20994988;28;20506;-70
2023/06/18 16:13:59;;;;;;;4.00;2.10;;;;;;;;;;20993825;28;20047;-69
2023/06/18 16:24:01;;;;;;;4.00;2.72;;;;;;;;;;20994347;28;20448;-70
2023/06/18 16:34:02;;;;;;;3.67;2.22;;;;;;;;;;20995217;28;20398;-69
2023/06/18 16:44:04;;;;;;;4.78;2.20;;;;;;;;;;21008114;28;20119;-70
2023/06/18 16:54:05;;;;;;;5.45;3.03;;;;;;;;;;21008576;28;20041;-69
2023/06/18 17:04:06;;;;;;;3.20;2.80;;;;;;;;;;21007895;28;20051;-70
2023/06/18 17:14:07;;;;;;;6.97;2.90;;;;;;;;;;21007037;28;20076;-69
2023/06/18 17:24:08;;;;;;;3.72;2.05;;;;;;;;;;21006363;28;20390;-69
2023/06/18 17:34:10;;;;;;;4.38;2.28;;;;;;;;;;21004017;28;20079;-69
2023/06/18 17:44:11;;;;;;;5.70;3.28;;;;;;;;;;21005171;28;20059;-68
2023/06/18 17:54:12;;;;;;;3.55;2.90;;;;;;;;;;21003170;28;20044;-69
2023/06/18 18:04:14;;;;;;;4.15;3.00;;;;;;;;;;21003376;28;20529;-69
2023/06/18 18:14:17;;;;;;;5.07;3.55;;;;;;;;;;21001285;28;20096;-69
2023/06/18 18:24:19;;;;;;;3.85;2.63;;;;;;;;;;21001822;28;20391;-68
2023/06/18 18:34:20;;;;;;;3.53;2.78;;;;;;;;;;20998178;28;20048;-67
2023/06/18 18:44:21;;;;;;;4.53;3.08;;;;;;;;;;20999043;28;20056;-66
2023/06/18 18:54:22;;;;;;;5.50;2.70;;;;;;;;;;20998921;28;20041;-68
2023/06/18 19:04:24;;;;;;;3.50;2.47;;;;;;;;;;20998316;28;20421;-68
2023/06/18 19:14:25;;;;;;;3.53;2.70;;;;;;;;;;20998230;28;20133;-69
2023/06/18 19:24:26;;;;;;;5.30;3.50;;;;;;;;;;20997674;28;20051;-68
2023/06/18 19:34:27;;;;;;;5.93;4.25;;;;;;;;;;20995897;28;20124;-68
2023/06/18 19:44:28;;;;;;;6.53;4.30;;;;;;;;;;20996288;28;20087;-68
2023/06/18 19:54:30;;;;;;;4.78;3.65;;;;;;;;;;20995713;28;20047;-67
2023/06/18 20:04:31;;;;;;;4.07;3.25;;;;;;;;;;20994938;28;20643;-68
2023/06/18 20:14:32;;;;;;;5.95;3.42;;;;;;;;;;21006514;28;20410;-67
2023/06/18 20:24:33;;;;;;;9.40;3.55;;;;;;;;;;21009505;28;20059;-67
2023/06/18 20:34:38;;;;;;;5.63;3.63;;;;;;;;;;21008279;28;20063;-67
2023/06/18 20:44:39;;;;;;;7.18;4.13;;;;;;;;;;21008975;28;20104;-67
2023/06/18 20:54:41;;;;;;;5.63;3.75;;;;;;;;;;21007130;28;20045;-69
2023/06/18 21:04:42;;;;;;;5.53;3.08;;;;;;;;;;21008065;28;20060;-67
2023/06/18 21:14:43;;;;;;;5.78;3.42;;;;;;;;;;21007494;28;20040;-68
2023/06/18 21:24:44;;;;;;;5.05;3.47;;;;;;;;;;21005700;28;20067;-68
2023/06/18 21:34:45;;;;;;;5.28;3.30;;;;;;;;;;21004528;28;20517;-68
2023/06/18 21:44:46;;;;;;;8.45;4.03;;;;;;;;;;21003278;28;20142;-68
2023/06/18 21:54:47;;;;;;;8.50;4.60;;;;;;;;;;21002438;28;20159;-68
2023/06/18 22:04:48;;;;;;;6.85;3.90;;;;;;;;;;21003536;28;20047;-67
2023/06/18 22:14:50;;;;;;;28.60;17.10;;;;;;;;;;21002370;28;20044;-68
2023/06/18 22:24:51;;;;;;;12.23;7.30;;;;;;;;;;21001925;28;20124;-68
2023/06/18 22:34:52;;;;;;;6.30;4.10;;;;;;;;;;20998573;28;20059;-67
2023/06/18 22:44:53;;;;;;;9.82;6.63;;;;;;;;;;21000218;28;20040;-67
2023/06/18 22:54:54;;;;;;;8.85;5.20;;;;;;;;;;20999674;28;20072;-67
2023/06/18 23:04:55;;;;;;;7.15;3.42;;;;;;;;;;20999106;28;20150;-68
2023/06/18 23:14:56;;;;;;;7.45;4.30;;;;;;;;;;20998357;28;20048;-68
2023/06/18 23:24:57;;;;;;;6.43;3.58;;;;;;;;;;20997628;28;20048;-67
2023/06/18 23:35:01;;;;;;;5.10;3.60;;;;;;;;;;20996577;28;20052;-68
2023/06/18 23:45:03;;;;;;;8.05;3.58;;;;;;;;;;20996733;28;20044;-67
2023/06/18 23:55:04;;;;;;;5.85;3.25;;;;;;;;;;20995392;28;20044;-67
